sensor_id;sensor_type;location;lat;lon;timestamp;temperature;humidity
72591;SHT31;60625;51.212;5.952;2024-03-17T00:00:30;6.49;81.31
72591;SHT31;60625;51.212;5.952;2024-03-17T00:05:32;6.50;81.40
72591;SHT31;60625;51.212;5.952;2024-03-17T00:10:32;6.50;81.60
72591;SHT31;60625;51.212;5.952;2024-03-17T00:15:33;6.52;81.86
72591;SHT31;60625;51.212;5.952;2024-03-17T00:20:34;6.55;82.00
72591;SHT31;60625;51.212;5.952;2024-03-17T00:25:34;6.57;82.07
72591;SHT31;60625;51.212;5.952;2024-03-17T00:30:36;6.58;82.10
72591;SHT31;60625;51.212;5.952;2024-03-17T00:35:36;6.58;82.14
72591;SHT31;60625;51.212;5.952;2024-03-17T00:40:38;6.58;82.26
72591;SHT31;60625;51.212;5.952;2024-03-17T00:45:41;6.58;82.29
72591;SHT31;60625;51.212;5.952;2024-03-17T00:50:41;6.56;82.26
72591;SHT31;60625;51.212;5.952;2024-03-17T00:55:44;6.54;82.24
72591;SHT31;60625;51.212;5.952;2024-03-17T01:00:54;6.53;82.31
72591;SHT31;60625;51.212;5.952;2024-03-17T01:05:55;6.52;82.43
72591;SHT31;60625;51.212;5.952;2024-03-17T01:10:55;6.52;82.61
72591;SHT31;60625;51.212;5.952;2024-03-17T01:15:56;6.52;82.70
72591;SHT31;60625;51.212;5.952;2024-03-17T01:20:57;6.53;82.68
72591;SHT31;60625;51.212;5.952;2024-03-17T01:25:57;6.54;82.82
72591;SHT31;60625;51.212;5.952;2024-03-17T01:30:58;6.55;83.00
72591;SHT31;60625;51.212;5.952;2024-03-17T01:35:59;6.55;82.96
72591;SHT31;60625;51.212;5.952;2024-03-17T01:40:59;6.54;83.05
72591;SHT31;60625;51.212;5.952;2024-03-17T01:46:00;6.52;83.04
72591;SHT31;60625;51.212;5.952;2024-03-17T01:51:02;6.47;83.06
72591;SHT31;60625;51.212;5.952;2024-03-17T01:56:03;6.42;82.99
72591;SHT31;60625;51.212;5.952;2024-03-17T02:01:04;6.38;83.13
72591;SHT31;60625;51.212;5.952;2024-03-17T02:06:05;6.32;83.17
72591;SHT31;60625;51.212;5.952;2024-03-17T02:11:05;6.30;83.55
72591;SHT31;60625;51.212;5.952;2024-03-17T02:16:26;6.35;83.60
72591;SHT31;60625;51.212;5.952;2024-03-17T02:21:27;6.40;83.54
72591;SHT31;60625;51.212;5.952;2024-03-17T02:26:28;6.43;83.40
72591;SHT31;60625;51.212;5.952;2024-03-17T02:31:29;6.46;83.35
72591;SHT31;60625;51.212;5.952;2024-03-17T02:36:29;6.48;83.36
72591;SHT31;60625;51.212;5.952;2024-03-17T02:41:30;6.51;83.38
72591;SHT31;60625;51.212;5.952;2024-03-17T02:46:30;6.54;83.22
72591;SHT31;60625;51.212;5.952;2024-03-17T02:51:31;6.57;83.10
72591;SHT31;60625;51.212;5.952;2024-03-17T02:56:32;6.60;83.11
72591;SHT31;60625;51.212;5.952;2024-03-17T03:01:35;6.62;83.11
72591;SHT31;60625;51.212;5.952;2024-03-17T03:06:35;6.61;83.13
72591;SHT31;60625;51.212;5.952;2024-03-17T03:11:36;6.63;83.03
72591;SHT31;60625;51.212;5.952;2024-03-17T03:16:37;6.65;82.93
72591;SHT31;60625;51.212;5.952;2024-03-17T03:21:37;6.66;82.84
72591;SHT31;60625;51.212;5.952;2024-03-17T03:26:38;6.69;82.88
72591;SHT31;60625;51.212;5.952;2024-03-17T03:31:38;6.70;82.90
72591;SHT31;60625;51.212;5.952;2024-03-17T03:36:39;6.71;82.81
72591;SHT31;60625;51.212;5.952;2024-03-17T03:41:41;6.71;82.80
72591;SHT31;60625;51.212;5.952;2024-03-17T03:46:43;6.70;82.73
72591;SHT31;60625;51.212;5.952;2024-03-17T03:51:45;6.69;82.60
72591;SHT31;60625;51.212;5.952;2024-03-17T03:56:45;6.68;82.54
72591;SHT31;60625;51.212;5.952;2024-03-17T04:01:46;6.63;82.60
72591;SHT31;60625;51.212;5.952;2024-03-17T04:06:49;6.62;82.58
72591;SHT31;60625;51.212;5.952;2024-03-17T04:11:49;6.61;82.49
72591;SHT31;60625;51.212;5.952;2024-03-17T04:16:50;6.58;82.42
72591;SHT31;60625;51.212;5.952;2024-03-17T04:21:51;6.54;82.41
72591;SHT31;60625;51.212;5.952;2024-03-17T04:26:52;6.50;82.40
72591;SHT31;60625;51.212;5.952;2024-03-17T04:31:53;6.48;82.36
72591;SHT31;60625;51.212;5.952;2024-03-17T04:36:54;6.45;82.32
72591;SHT31;60625;51.212;5.952;2024-03-17T04:41:54;6.41;82.30
72591;SHT31;60625;51.212;5.952;2024-03-17T04:46:55;6.39;82.29
72591;SHT31;60625;51.212;5.952;2024-03-17T04:51:55;6.37;82.26
72591;SHT31;60625;51.212;5.952;2024-03-17T04:56:56;6.35;82.19
72591;SHT31;60625;51.212;5.952;2024-03-17T05:01:56;6.33;82.20
72591;SHT31;60625;51.212;5.952;2024-03-17T05:06:57;6.30;82.11
72591;SHT31;60625;51.212;5.952;2024-03-17T05:11:57;6.28;82.19
72591;SHT31;60625;51.212;5.952;2024-03-17T05:16:58;6.26;82.21
72591;SHT31;60625;51.212;5.952;2024-03-17T05:21:59;6.24;82.20
72591;SHT31;60625;51.212;5.952;2024-03-17T05:27:00;6.22;82.21
72591;SHT31;60625;51.212;5.952;2024-03-17T05:32:01;6.20;82.29
72591;SHT31;60625;51.212;5.952;2024-03-17T05:37:02;6.18;82.27
72591;SHT31;60625;51.212;5.952;2024-03-17T05:42:04;6.12;82.25
72591;SHT31;60625;51.212;5.952;2024-03-17T05:47:06;6.11;82.21
72591;SHT31;60625;51.212;5.952;2024-03-17T05:52:08;6.13;82.15
72591;SHT31;60625;51.212;5.952;2024-03-17T05:57:08;6.16;82.00
72591;SHT31;60625;51.212;5.952;2024-03-17T06:02:12;6.19;81.85
72591;SHT31;60625;51.212;5.952;2024-03-17T06:07:12;6.19;81.75
72591;SHT31;60625;51.212;5.952;2024-03-17T06:12:13;6.20;81.74
72591;SHT31;60625;51.212;5.952;2024-03-17T06:17:13;6.26;81.68
72591;SHT31;60625;51.212;5.952;2024-03-17T06:22:14;6.32;81.60
72591;SHT31;60625;51.212;5.952;2024-03-17T06:27:14;6.39;81.49
72591;SHT31;60625;51.212;5.952;2024-03-17T06:32:16;6.46;81.32
72591;SHT31;60625;51.212;5.952;2024-03-17T06:37:17;6.50;81.10
72591;SHT31;60625;51.212;5.952;2024-03-17T06:42:17;6.50;81.02
72591;SHT31;60625;51.212;5.952;2024-03-17T06:47:18;6.53;80.96
72591;SHT31;60625;51.212;5.952;2024-03-17T06:52:19;6.59;81.00
72591;SHT31;60625;51.212;5.952;2024-03-17T06:57:19;6.68;81.05
72591;SHT31;60625;51.212;5.952;2024-03-17T07:02:21;6.78;80.92
72591;SHT31;60625;51.212;5.952;2024-03-17T07:07:22;6.89;80.96
72591;SHT31;60625;51.212;5.952;2024-03-17T07:12:22;7.01;80.96
72591;SHT31;60625;51.212;5.952;2024-03-17T07:17:23;7.15;80.83
72591;SHT31;60625;51.212;5.952;2024-03-17T07:22:23;7.29;80.74
72591;SHT31;60625;51.212;5.952;2024-03-17T07:27:27;7.42;80.64
72591;SHT31;60625;51.212;5.952;2024-03-17T07:32:28;7.55;80.60
72591;SHT31;60625;51.212;5.952;2024-03-17T07:37:32;7.68;80.75
72591;SHT31;60625;51.212;5.952;2024-03-17T07:42:32;7.84;80.71
72591;SHT31;60625;51.212;5.952;2024-03-17T07:47:34;7.93;80.25
72591;SHT31;60625;51.212;5.952;2024-03-17T07:52:38;8.06;80.15
72591;SHT31;60625;51.212;5.952;2024-03-17T07:57:38;8.29;80.14
72591;SHT31;60625;51.212;5.952;2024-03-17T08:02:50;8.48;79.68
72591;SHT31;60625;51.212;5.952;2024-03-17T08:07:57;8.61;79.10
72591;SHT31;60625;51.212;5.952;2024-03-17T08:12:57;8.73;78.96
72591;SHT31;60625;51.212;5.952;2024-03-17T08:18:02;8.81;78.74
72591;SHT31;60625;51.212;5.952;2024-03-17T08:23:04;8.88;78.42
72591;SHT31;60625;51.212;5.952;2024-03-17T08:28:06;9.00;78.47
72591;SHT31;60625;51.212;5.952;2024-03-17T08:33:09;9.09;77.92
72591;SHT31;60625;51.212;5.952;2024-03-17T08:38:10;9.17;78.11
72591;SHT31;60625;51.212;5.952;2024-03-17T08:43:14;9.25;78.04
72591;SHT31;60625;51.212;5.952;2024-03-17T08:48:15;9.36;77.89
72591;SHT31;60625;51.212;5.952;2024-03-17T08:53:16;9.50;77.64
72591;SHT31;60625;51.212;5.952;2024-03-17T08:58:21;9.62;77.49
72591;SHT31;60625;51.212;5.952;2024-03-17T09:03:23;9.67;77.21
72591;SHT31;60625;51.212;5.952;2024-03-17T09:08:27;9.75;77.00
72591;SHT31;60625;51.212;5.952;2024-03-17T09:13:28;9.89;77.07
72591;SHT31;60625;51.212;5.952;2024-03-17T09:18:29;10.04;76.90
72591;SHT31;60625;51.212;5.952;2024-03-17T09:23:32;10.20;76.22
72591;SHT31;60625;51.212;5.952;2024-03-17T09:28:35;10.35;75.61
72591;SHT31;60625;51.212;5.952;2024-03-17T09:33:37;10.54;75.56
72591;SHT31;60625;51.212;5.952;2024-03-17T09:38:41;10.76;75.60
72591;SHT31;60625;51.212;5.952;2024-03-17T09:43:41;10.98;75.01
72591;SHT31;60625;51.212;5.952;2024-03-17T09:48:44;11.17;74.82
72591;SHT31;60625;51.212;5.952;2024-03-17T09:53:45;11.41;74.53
72591;SHT31;60625;51.212;5.952;2024-03-17T09:58:47;11.61;74.25
72591;SHT31;60625;51.212;5.952;2024-03-17T10:03:51;11.71;73.34
72591;SHT31;60625;51.212;5.952;2024-03-17T10:08:55;11.88;73.22
72591;SHT31;60625;51.212;5.952;2024-03-17T10:14:10;12.05;72.82
72591;SHT31;60625;51.212;5.952;2024-03-17T10:24:24;12.28;72.40
72591;SHT31;60625;51.212;5.952;2024-03-17T10:29:32;12.34;72.17
72591;SHT31;60625;51.212;5.952;2024-03-17T10:34:36;12.47;71.94
72591;SHT31;60625;51.212;5.952;2024-03-17T10:39:38;12.60;71.68
72591;SHT31;60625;51.212;5.952;2024-03-17T10:44:41;12.69;71.93
72591;SHT31;60625;51.212;5.952;2024-03-17T10:49:46;12.86;71.54
72591;SHT31;60625;51.212;5.952;2024-03-17T10:54:51;12.97;71.04
72591;SHT31;60625;51.212;5.952;2024-03-17T10:59:53;13.05;70.86
72591;SHT31;60625;51.212;5.952;2024-03-17T11:04:57;13.17;70.96
72591;SHT31;60625;51.212;5.952;2024-03-17T11:10:00;13.31;70.93
72591;SHT31;60625;51.212;5.952;2024-03-17T11:20:24;13.65;70.23
72591;SHT31;60625;51.212;5.952;2024-03-17T11:35:47;14.06;69.48
72591;SHT31;60625;51.212;5.952;2024-03-17T11:40:47;14.00;69.63
72591;SHT31;60625;51.212;5.952;2024-03-17T11:45:54;14.02;69.58
72591;SHT31;60625;51.212;5.952;2024-03-17T11:50:56;14.02;69.97
72591;SHT31;60625;51.212;5.952;2024-03-17T11:55:58;14.04;69.77
72591;SHT31;60625;51.212;5.952;2024-03-17T12:00:58;14.10;69.53
72591;SHT31;60625;51.212;5.952;2024-03-17T12:06:00;14.20;69.64
72591;SHT31;60625;51.212;5.952;2024-03-17T12:11:02;14.33;69.36
72591;SHT31;60625;51.212;5.952;2024-03-17T12:16:12;14.45;68.81
72591;SHT31;60625;51.212;5.952;2024-03-17T12:21:14;14.47;68.42
72591;SHT31;60625;51.212;5.952;2024-03-17T12:26:15;14.48;68.67
72591;SHT31;60625;51.212;5.952;2024-03-17T12:31:16;14.51;69.04
72591;SHT31;60625;51.212;5.952;2024-03-17T12:36:17;14.53;68.87
72591;SHT31;60625;51.212;5.952;2024-03-17T12:41:41;14.45;68.63
72591;SHT31;60625;51.212;5.952;2024-03-17T12:46:42;14.45;68.44
72591;SHT31;60625;51.212;5.952;2024-03-17T12:51:51;14.43;68.14
72591;SHT31;60625;51.212;5.952;2024-03-17T12:57:05;14.40;68.42
72591;SHT31;60625;51.212;5.952;2024-03-17T13:02:26;14.43;68.36
72591;SHT31;60625;51.212;5.952;2024-03-17T13:07:28;14.41;68.12
72591;SHT31;60625;51.212;5.952;2024-03-17T13:12:29;14.39;68.32
72591;SHT31;60625;51.212;5.952;2024-03-17T13:17:30;14.42;68.66
72591;SHT31;60625;51.212;5.952;2024-03-17T13:22:34;14.47;68.52
72591;SHT31;60625;51.212;5.952;2024-03-17T13:27:38;14.51;68.38
72591;SHT31;60625;51.212;5.952;2024-03-17T13:32:39;14.62;68.15
72591;SHT31;60625;51.212;5.952;2024-03-17T13:37:45;14.77;67.98
72591;SHT31;60625;51.212;5.952;2024-03-17T13:42:51;15.01;67.71
72591;SHT31;60625;51.212;5.952;2024-03-17T13:47:56;15.25;67.59
72591;SHT31;60625;51.212;5.952;2024-03-17T13:52:59;15.47;66.21
72591;SHT31;60625;51.212;5.952;2024-03-17T13:58:03;15.76;66.52
72591;SHT31;60625;51.212;5.952;2024-03-17T14:03:04;15.97;65.74
72591;SHT31;60625;51.212;5.952;2024-03-17T14:08:09;16.09;65.27
72591;SHT31;60625;51.212;5.952;2024-03-17T14:13:10;16.23;64.49
72591;SHT31;60625;51.212;5.952;2024-03-17T14:18:11;16.33;64.75
72591;SHT31;60625;51.212;5.952;2024-03-17T14:23:15;16.29;63.80
72591;SHT31;60625;51.212;5.952;2024-03-17T14:28:17;16.17;64.30
72591;SHT31;60625;51.212;5.952;2024-03-17T14:33:19;16.11;64.29
72591;SHT31;60625;51.212;5.952;2024-03-17T14:38:20;16.09;63.95
72591;SHT31;60625;51.212;5.952;2024-03-17T14:43:21;16.04;63.33
72591;SHT31;60625;51.212;5.952;2024-03-17T14:48:21;15.95;63.56
72591;SHT31;60625;51.212;5.952;2024-03-17T14:53:23;15.81;63.33
72591;SHT31;60625;51.212;5.952;2024-03-17T14:58:24;15.70;63.42
72591;SHT31;60625;51.212;5.952;2024-03-17T15:03:25;15.61;63.69
72591;SHT31;60625;51.212;5.952;2024-03-17T15:08:28;15.50;63.96
72591;SHT31;60625;51.212;5.952;2024-03-17T15:13:28;15.47;64.17
72591;SHT31;60625;51.212;5.952;2024-03-17T15:18:29;15.40;63.85
72591;SHT31;60625;51.212;5.952;2024-03-17T15:23:33;15.31;64.12
72591;SHT31;60625;51.212;5.952;2024-03-17T15:28:34;15.34;64.15
72591;SHT31;60625;51.212;5.952;2024-03-17T15:33:41;15.35;64.01
72591;SHT31;60625;51.212;5.952;2024-03-17T15:38:41;15.32;64.15
72591;SHT31;60625;51.212;5.952;2024-03-17T15:43:44;15.23;64.31
72591;SHT31;60625;51.212;5.952;2024-03-17T15:48:45;15.24;64.45
72591;SHT31;60625;51.212;5.952;2024-03-17T15:53:47;15.22;64.27
72591;SHT31;60625;51.212;5.952;2024-03-17T15:58:48;15.19;64.49
72591;SHT31;60625;51.212;5.952;2024-03-17T16:03:54;15.19;64.60
72591;SHT31;60625;51.212;5.952;2024-03-17T16:08:56;15.16;65.17
72591;SHT31;60625;51.212;5.952;2024-03-17T16:14:02;15.14;64.85
72591;SHT31;60625;51.212;5.952;2024-03-17T16:19:06;15.07;64.96
72591;SHT31;60625;51.212;5.952;2024-03-17T16:24:11;15.01;64.89
72591;SHT31;60625;51.212;5.952;2024-03-17T16:29:15;14.98;65.26
72591;SHT31;60625;51.212;5.952;2024-03-17T16:34:15;14.93;65.57
72591;SHT31;60625;51.212;5.952;2024-03-17T16:39:25;14.84;66.20
72591;SHT31;60625;51.212;5.952;2024-03-17T16:50:05;14.66;65.62
72591;SHT31;60625;51.212;5.952;2024-03-17T16:55:09;14.60;65.64
72591;SHT31;60625;51.212;5.952;2024-03-17T17:00:10;14.54;65.36
72591;SHT31;60625;51.212;5.952;2024-03-17T17:05:17;14.49;65.15
72591;SHT31;60625;51.212;5.952;2024-03-17T17:10:18;14.47;64.96
72591;SHT31;60625;51.212;5.952;2024-03-17T17:15:21;14.44;64.78
72591;SHT31;60625;51.212;5.952;2024-03-17T17:20:21;14.39;65.00
72591;SHT31;60625;51.212;5.952;2024-03-17T17:25:22;14.33;66.24
72591;SHT31;60625;51.212;5.952;2024-03-17T17:30:23;14.28;66.77
72591;SHT31;60625;51.212;5.952;2024-03-17T17:35:26;14.23;67.36
72591;SHT31;60625;51.212;5.952;2024-03-17T17:40:26;14.13;68.18
72591;SHT31;60625;51.212;5.952;2024-03-17T17:45:29;14.05;68.53
72591;SHT31;60625;51.212;5.952;2024-03-17T17:50:29;13.99;68.94
72591;SHT31;60625;51.212;5.952;2024-03-17T17:55:30;13.95;68.86
72591;SHT31;60625;51.212;5.952;2024-03-17T18:00:30;13.91;69.41
72591;SHT31;60625;51.212;5.952;2024-03-17T18:05:37;13.86;69.61
72591;SHT31;60625;51.212;5.952;2024-03-17T18:10:43;13.83;69.77
72591;SHT31;60625;51.212;5.952;2024-03-17T18:15:43;13.79;69.95
72591;SHT31;60625;51.212;5.952;2024-03-17T18:20:58;13.74;70.44
72591;SHT31;60625;51.212;5.952;2024-03-17T18:26:04;13.68;70.51
72591;SHT31;60625;51.212;5.952;2024-03-17T18:31:10;13.67;70.50
72591;SHT31;60625;51.212;5.952;2024-03-17T18:36:12;13.64;70.51
72591;SHT31;60625;51.212;5.952;2024-03-17T18:41:13;13.60;70.61
72591;SHT31;60625;51.212;5.952;2024-03-17T18:46:14;13.57;70.79
72591;SHT31;60625;51.212;5.952;2024-03-17T18:51:18;13.56;71.14
72591;SHT31;60625;51.212;5.952;2024-03-17T18:56:23;13.54;71.54
72591;SHT31;60625;51.212;5.952;2024-03-17T19:01:25;13.52;72.06
72591;SHT31;60625;51.212;5.952;2024-03-17T19:06:26;13.48;72.33
72591;SHT31;60625;51.212;5.952;2024-03-17T19:11:28;13.44;72.63
72591;SHT31;60625;51.212;5.952;2024-03-17T19:16:29;13.39;72.96
72591;SHT31;60625;51.212;5.952;2024-03-17T19:21:29;13.33;73.76
72591;SHT31;60625;51.212;5.952;2024-03-17T19:26:36;13.23;74.36
72591;SHT31;60625;51.212;5.952;2024-03-17T19:31:36;13.16;74.82
72591;SHT31;60625;51.212;5.952;2024-03-17T19:36:37;13.09;75.21
72591;SHT31;60625;51.212;5.952;2024-03-17T19:41:39;13.03;75.60
72591;SHT31;60625;51.212;5.952;2024-03-17T19:46:39;12.98;75.82
72591;SHT31;60625;51.212;5.952;2024-03-17T19:51:40;12.90;76.09
72591;SHT31;60625;51.212;5.952;2024-03-17T19:56:41;12.84;76.33
72591;SHT31;60625;51.212;5.952;2024-03-17T20:01:42;12.81;76.56
72591;SHT31;60625;51.212;5.952;2024-03-17T20:06:42;12.77;76.66
72591;SHT31;60625;51.212;5.952;2024-03-17T20:11:43;12.71;76.80
72591;SHT31;60625;51.212;5.952;2024-03-17T20:16:44;12.70;76.86
72591;SHT31;60625;51.212;5.952;2024-03-17T20:21:44;12.67;77.02
72591;SHT31;60625;51.212;5.952;2024-03-17T20:26:46;12.63;77.02
72591;SHT31;60625;51.212;5.952;2024-03-17T20:31:47;12.61;76.81
72591;SHT31;60625;51.212;5.952;2024-03-17T20:36:47;12.59;76.86
72591;SHT31;60625;51.212;5.952;2024-03-17T20:41:48;12.59;76.92
72591;SHT31;60625;51.212;5.952;2024-03-17T20:46:48;12.56;76.94
72591;SHT31;60625;51.212;5.952;2024-03-17T20:51:49;12.54;77.01
72591;SHT31;60625;51.212;5.952;2024-03-17T20:56:50;12.52;77.11
72591;SHT31;60625;51.212;5.952;2024-03-17T21:01:51;12.46;77.31
72591;SHT31;60625;51.212;5.952;2024-03-17T21:06:52;12.45;77.08
72591;SHT31;60625;51.212;5.952;2024-03-17T21:11:52;12.44;76.97
72591;SHT31;60625;51.212;5.952;2024-03-17T21:16:58;12.44;77.11
72591;SHT31;60625;51.212;5.952;2024-03-17T21:21:59;12.44;77.32
72591;SHT31;60625;51.212;5.952;2024-03-17T21:27:00;12.43;77.44
72591;SHT31;60625;51.212;5.952;2024-03-17T21:32:00;12.43;77.48
72591;SHT31;60625;51.212;5.952;2024-03-17T21:37:01;12.42;77.77
72591;SHT31;60625;51.212;5.952;2024-03-17T21:42:02;12.39;78.03
72591;SHT31;60625;51.212;5.952;2024-03-17T21:47:04;12.38;78.19
72591;SHT31;60625;51.212;5.952;2024-03-17T21:52:05;12.37;78.25
72591;SHT31;60625;51.212;5.952;2024-03-17T21:57:06;12.35;78.33
72591;SHT31;60625;51.212;5.952;2024-03-17T22:02:06;12.30;78.89
72591;SHT31;60625;51.212;5.952;2024-03-17T22:07:09;12.23;79.40
72591;SHT31;60625;51.212;5.952;2024-03-17T22:12:10;12.18;79.78
72591;SHT31;60625;51.212;5.952;2024-03-17T22:17:14;12.13;79.93
72591;SHT31;60625;51.212;5.952;2024-03-17T22:22:15;12.09;80.07
72591;SHT31;60625;51.212;5.952;2024-03-17T22:27:15;12.04;80.29
72591;SHT31;60625;51.212;5.952;2024-03-17T22:32:16;11.99;80.53
72591;SHT31;60625;51.212;5.952;2024-03-17T22:37:16;11.96;80.90
72591;SHT31;60625;51.212;5.952;2024-03-17T22:42:17;11.95;81.21
72591;SHT31;60625;51.212;5.952;2024-03-17T22:47:17;11.94;81.43
72591;SHT31;60625;51.212;5.952;2024-03-17T22:52:18;11.89;81.82
72591;SHT31;60625;51.212;5.952;2024-03-17T22:57:19;11.83;82.30
72591;SHT31;60625;51.212;5.952;2024-03-17T23:02:20;11.79;82.64
72591;SHT31;60625;51.212;5.952;2024-03-17T23:07:20;11.72;82.95
72591;SHT31;60625;51.212;5.952;2024-03-17T23:12:21;11.70;83.20
72591;SHT31;60625;51.212;5.952;2024-03-17T23:17:21;11.65;83.51
72591;SHT31;60625;51.212;5.952;2024-03-17T23:22:22;11.61;83.79
72591;SHT31;60625;51.212;5.952;2024-03-17T23:27:23;11.59;83.97
72591;SHT31;60625;51.212;5.952;2024-03-17T23:32:23;11.56;84.17
72591;SHT31;60625;51.212;5.952;2024-03-17T23:37:24;11.53;84.40
72591;SHT31;60625;51.212;5.952;2024-03-17T23:42:24;11.51;84.57
72591;SHT31;60625;51.212;5.952;2024-03-17T23:47:26;11.50;84.70
72591;SHT31;60625;51.212;5.952;2024-03-17T23:52:26;11.48;84.86
72591;SHT31;60625;51.212;5.952;2024-03-17T23:57:27;11.47;85.03
